Time;durP1;ratioP1;P1;durP2;ratioP2;P2;SDS_P1;SDS_P2;PMS_P1;PMS_P2;Temp;Humidity;BMP_temperature;BMP_pressure;BME280_temperature;BME280_humidity;BME280_pressure;Samples;Min_cycle;Max_cycle;Signal;HPM_P1;HPM_P2
2022/03/11 00:00:10;;;;;;;12.60;6.43;;;6.50;83.10;;;;;;5009314;28;20407;-68
2022/03/11 00:02:36;;;;;;;10.03;5.90;;;6.40;93.90;;;;;;5009567;28;20034;-68
2022/03/11 00:05:02;;;;;;;10.03;5.80;;;6.40;94.00;;;;;;5009628;28;20026;-68
2022/03/11 00:07:28;;;;;;;12.67;6.87;;;6.40;94.00;;;;;;5008018;28;20119;-69
2022/03/11 00:09:53;;;;;;;12.73;7.53;;;6.40;93.90;;;;;;5009416;28;20057;-68
2022/03/11 00:12:19;;;;;;;10.03;6.73;;;;;;;;;;5009748;28;20030;-68
2022/03/11 00:14:45;;;;;;;10.20;6.30;;;;;;;;;;5009445;28;20030;-68
2022/03/11 00:17:11;;;;;;;11.77;6.90;;;6.30;94.00;;;;;;5009624;28;20029;-68
2022/03/11 00:19:37;;;;;;;10.80;6.20;;;;;;;;;;5009039;28;20034;-68
2022/03/11 00:22:02;;;;;;;9.00;6.27;;;6.20;94.20;;;;;;5009127;28;20238;-68
2022/03/11 00:24:28;;;;;;;10.27;5.87;;;;;;;;;;5009376;28;20061;-68
2022/03/11 00:26:54;;;;;;;11.80;6.77;;;6.00;94.20;;;;;;5009433;28;20034;-68
2022/03/11 00:29:19;;;;;;;11.90;6.83;;;6.20;94.30;;;;;;5008286;28;20026;-68
2022/03/11 00:31:45;;;;;;;11.43;6.33;;;;;;;;;;5009435;28;20029;-68
2022/03/11 00:34:11;;;;;;;11.93;7.40;;;6.10;89.20;;;;;;5008589;28;20026;-68
2022/03/11 00:36:37;;;;;;;11.27;6.60;;;6.10;94.30;;;;;;5012430;28;20072;-68
2022/03/11 00:39:03;;;;;;;12.97;7.63;;;6.00;90.50;;;;;;5012595;28;20030;-68
2022/03/11 00:41:29;;;;;;;10.63;6.43;;;6.10;94.40;;;;;;5013161;28;20387;-68
2022/03/11 00:43:55;;;;;;;10.93;7.30;;;6.00;92.80;;;;;;5012918;28;20057;-68
2022/03/11 00:46:21;;;;;;;15.30;7.70;;;;;;;;;;5013259;28;20115;-68
2022/03/11 00:48:47;;;;;;;12.53;7.13;;;;;;;;;;5012666;28;20490;-68
2022/03/11 00:51:13;;;;;;;12.53;7.43;;;5.90;94.60;;;;;;5012431;28;20045;-68
2022/03/11 00:53:38;;;;;;;12.23;7.47;;;6.00;92.40;;;;;;5012539;28;20044;-68
2022/03/11 00:56:04;;;;;;;14.20;7.53;;;6.00;94.70;;;;;;5012845;28;20026;-68
2022/03/11 00:58:29;;;;;;;13.87;7.90;;;5.70;94.70;;;;;;5013108;28;20041;-68
2022/03/11 01:00:55;;;;;;;12.47;6.77;;;;;;;;;;5012506;28;20513;-68
2022/03/11 01:03:21;;;;;;;14.80;8.90;;;5.90;94.90;;;;;;5012985;28;20105;-68
2022/03/11 01:05:47;;;;;;;13.23;8.70;;;;;;;;;;5012019;28;20112;-68
2022/03/11 01:08:13;;;;;;;11.90;7.93;;;;;;;;;;5012509;28;20387;-68
2022/03/11 01:10:40;;;;;;;12.90;7.70;;;;;;;;;;5012307;28;20030;-69
2022/03/11 01:13:07;;;;;;;17.30;8.00;;;5.60;93.30;;;;;;5012316;28;20080;-68
2022/03/11 01:15:32;;;;;;;16.37;7.83;;;5.70;95.20;;;;;;5012286;28;20081;-68
2022/03/11 01:17:58;;;;;;;11.77;7.60;;;;;;;;;;5012203;28;20509;-68
2022/03/11 01:20:24;;;;;;;13.70;9.57;;;;;;;;;;5010823;28;20033;-68
2022/03/11 01:22:50;;;;;;;13.27;7.53;;;5.60;95.30;;;;;;5011816;28;20030;-68
2022/03/11 01:25:15;;;;;;;11.87;7.90;;;5.50;95.50;;;;;;5012399;28;20026;-68
2022/03/11 01:27:41;;;;;;;13.33;8.10;;;;;;;;;;5012226;28;20029;-68
2022/03/11 01:30:09;;;;;;;13.43;8.60;;;5.60;95.70;;;;;;5010543;28;20022;-68
2022/03/11 01:32:35;;;;;;;13.00;8.43;;;5.50;93.20;;;;;;5012235;28;20018;-68
2022/03/11 01:35:01;;;;;;;12.30;8.17;;;5.40;95.70;;;;;;5011608;28;20382;-68
2022/03/11 01:37:27;;;;;;;11.50;6.70;;;5.40;95.80;;;;;;5011992;28;20041;-68
2022/03/11 01:39:52;;;;;;;13.43;8.00;;;;;;;;;;5011765;28;20026;-68
2022/03/11 01:42:18;;;;;;;14.33;8.20;;;5.50;92.20;;;;;;5012164;28;20030;-68
2022/03/11 01:44:44;;;;;;;15.50;9.40;;;;;;;;;;5011623;28;20025;-68
2022/03/11 01:47:10;;;;;;;14.20;9.87;;;5.30;96.10;;;;;;5010040;28;20490;-68
2022/03/11 01:49:36;;;;;;;13.43;9.43;;;;;;;;;;5011114;28;20037;-68
2022/03/11 01:52:01;;;;;;;15.87;10.00;;;5.40;92.70;;;;;;5011419;28;20471;-68
2022/03/11 01:54:27;;;;;;;12.20;8.73;;;;;;;;;;5011799;28;20022;-68
2022/03/11 01:56:53;;;;;;;13.00;8.93;;;5.10;96.30;;;;;;5011341;28;20060;-67
2022/03/11 01:59:19;;;;;;;13.73;8.03;;;5.20;96.40;;;;;;5010527;28;20022;-67
2022/03/11 02:01:45;;;;;;;13.33;9.07;;;;;;;;;;5011207;28;20029;-68
2022/03/11 02:04:11;;;;;;;13.30;8.90;;;;;;;;;;5010959;28;20032;-67
2022/03/11 02:06:37;;;;;;;15.70;8.47;;;5.00;96.50;;;;;;5011068;28;20042;-68
2022/03/11 02:09:03;;;;;;;15.33;8.63;;;4.70;96.50;;;;;;5011192;28;20438;-67
2022/03/11 02:11:29;;;;;;;17.37;9.73;;;5.10;93.70;;;;;;5011387;28;20025;-67
2022/03/11 02:13:56;;;;;;;12.83;8.30;;;4.90;90.00;;;;;;5011113;28;20037;-67
2022/03/11 02:16:26;;;;;;;13.60;8.53;;;5.20;91.60;;;;;;5011018;28;20426;-68
2022/03/11 02:18:52;;;;;;;16.60;10.77;;;;;;;;;;5010395;28;20022;-67
2022/03/11 02:21:20;;;;;;;13.80;9.10;;;4.90;96.90;;;;;;5009968;28;20029;-68
2022/03/11 02:23:49;;;;;;;16.73;8.93;;;4.90;96.90;;;;;;5010771;28;20045;-71
2022/03/11 02:26:17;;;;;;;16.83;9.67;;;4.90;93.20;;;;;;4991513;28;20030;-67
2022/03/11 02:28:44;;;;;;;11.40;7.90;;;5.00;91.70;;;;;;4991457;28;20033;-68
2022/03/11 02:31:10;;;;;;;16.97;9.53;;;;;;;;;;4991200;28;20022;-67
2022/03/11 02:33:36;;;;;;;13.53;9.70;;;4.90;97.10;;;;;;4990948;28;20026;-67
2022/03/11 02:36:02;;;;;;;14.57;9.63;;;;;;;;;;4990924;28;20105;-67
2022/03/11 02:38:28;;;;;;;14.60;8.90;;;;;;;;;;4991447;28;20030;-68
2022/03/11 02:40:54;;;;;;;13.00;7.83;;;5.20;97.30;;;;;;5006134;28;20422;-67
2022/03/11 02:43:21;;;;;;;15.63;10.27;;;;;;;;;;5010777;28;20032;-68
2022/03/11 02:45:46;;;;;;;13.63;9.00;;;4.80;97.30;;;;;;5010452;28;20861;-67
2022/03/11 02:48:12;;;;;;;14.50;8.37;;;;;;;;;;5010050;28;20116;-68
2022/03/11 02:50:38;;;;;;;12.73;8.80;;;4.40;94.90;;;;;;5010328;28;20069;-68
2022/03/11 02:53:03;;;;;;;15.13;9.30;;;4.70;97.60;;;;;;5010199;28;20034;-68
2022/03/11 02:55:29;;;;;;;12.37;7.87;;;4.80;97.50;;;;;;5010527;28;20034;-68
2022/03/11 02:57:54;;;;;;;17.93;10.67;;;4.90;97.70;;;;;;5009792;28;20034;-67
2022/03/11 03:00:20;;;;;;;13.70;9.00;;;4.90;91.00;;;;;;5011099;28;20386;-69
2022/03/11 03:02:45;;;;;;;18.93;11.07;;;4.90;97.80;;;;;;5010483;28;20524;-68
2022/03/11 03:05:13;;;;;;;17.00;10.53;;;4.80;97.70;;;;;;5010357;28;20375;-67
2022/03/11 03:07:39;;;;;;;17.33;10.73;;;;;;;;;;5010005;28;20037;-67
2022/03/11 03:10:06;;;;;;;18.40;8.90;;;4.60;97.70;;;;;;5009525;28;20055;-67
2022/03/11 03:12:31;;;;;;;15.27;9.00;;;4.70;97.80;;;;;;5010656;28;20033;-67
2022/03/11 03:14:57;;;;;;;14.93;9.10;;;4.70;98.10;;;;;;5010062;28;20022;-67
2022/03/11 03:17:23;;;;;;;12.67;8.97;;;;;;;;;;5010693;28;20049;-68
2022/03/11 03:19:49;;;;;;;16.27;9.90;;;;;;;;;;5010405;28;20475;-67
2022/03/11 03:22:15;;;;;;;19.03;10.13;;;4.70;95.00;;;;;;5009450;28;20510;-67
2022/03/11 03:24:42;;;;;;;13.60;9.97;;;4.50;98.20;;;;;;5010320;28;20084;-67
2022/03/11 03:27:08;;;;;;;14.60;9.30;;;4.60;98.20;;;;;;5010272;28;20048;-67
2022/03/11 03:29:34;;;;;;;21.30;9.80;;;4.50;98.20;;;;;;5010273;28;20438;-69
2022/03/11 03:32:00;;;;;;;15.60;9.57;;;4.40;98.30;;;;;;5010099;28;20113;-68
2022/03/11 03:34:30;;;;;;;16.27;11.30;;;4.50;90.70;;;;;;5010285;28;20026;-68
2022/03/11 03:36:57;;;;;;;16.97;9.53;;;4.50;91.50;;;;;;5010351;28;20029;-68
2022/03/11 03:39:23;;;;;;;16.07;10.23;;;4.40;98.40;;;;;;5010309;28;20116;-68
2022/03/11 03:41:49;;;;;;;15.57;8.77;;;;;;;;;;5008783;28;20483;-68
2022/03/11 03:44:14;;;;;;;16.33;8.83;;;4.30;98.40;;;;;;5010062;28;20034;-68
2022/03/11 03:46:40;;;;;;;14.77;8.53;;;4.30;98.50;;;;;;5009970;28;20049;-67
2022/03/11 03:49:05;;;;;;;14.77;11.10;;;4.80;98.70;;;;;;5010244;28;20030;-68
2022/03/11 03:51:31;;;;;;;15.90;10.30;;;4.50;91.40;;;;;;5010398;28;20451;-69
2022/03/11 03:53:57;;;;;;;14.90;9.27;;;;;;;;;;5010010;28;20064;-69
2022/03/11 03:56:23;;;;;;;16.70;10.17;;;;;;;;;;5008273;28;20397;-68
2022/03/11 03:58:49;;;;;;;14.50;8.57;;;;;;;;;;5009301;28;20030;-68
2022/03/11 04:01:15;;;;;;;14.60;9.77;;;;;;;;;;5010057;28;20026;-68
2022/03/11 04:03:41;;;;;;;14.07;9.67;;;4.40;98.90;;;;;;5009820;28;20034;-68
2022/03/11 04:06:07;;;;;;;13.63;9.13;;;;;;;;;;5009725;28;20073;-68
2022/03/11 04:08:33;;;;;;;14.93;9.60;;;4.30;98.90;;;;;;5010772;28;20064;-68
2022/03/11 04:10:58;;;;;;;17.33;9.50;;;4.30;93.70;;;;;;5013547;28;20538;-68
2022/03/11 04:13:24;;;;;;;14.33;9.23;;;4.30;99.10;;;;;;5013539;28;20033;-68
2022/03/11 04:15:49;;;;;;;14.90;9.83;;;4.30;96.40;;;;;;5012161;28;20109;-68
2022/03/11 04:18:15;;;;;;;14.63;10.07;;;4.30;94.60;;;;;;5014019;28;20022;-68
2022/03/11 04:20:41;;;;;;;17.70;9.30;;;4.20;99.20;;;;;;5013590;28;20026;-68
2022/03/11 04:23:07;;;;;;;15.37;10.13;;;4.20;99.20;;;;;;5013676;28;20053;-68
2022/03/11 04:25:33;;;;;;;18.70;9.10;;;4.20;99.10;;;;;;5013535;28;20517;-68
2022/03/11 04:27:58;;;;;;;16.90;9.07;;;4.20;94.90;;;;;;5013006;28;20104;-68
2022/03/11 04:30:24;;;;;;;14.07;8.73;;;4.20;99.20;;;;;;5013454;28;20076;-68
2022/03/11 04:32:50;;;;;;;13.37;7.97;;;;;;;;;;5013186;28;20084;-68
2022/03/11 04:35:15;;;;;;;16.70;10.13;;;4.20;99.40;;;;;;5013702;28;20644;-68
2022/03/11 04:37:41;;;;;;;12.77;9.40;;;4.30;99.40;;;;;;5013093;28;20041;-68
2022/03/11 04:40:07;;;;;;;14.43;9.23;;;4.10;94.20;;;;;;5013300;28;20026;-67
2022/03/11 04:42:34;;;;;;;17.50;10.47;;;4.10;99.40;;;;;;5012691;28;20049;-69
2022/03/11 04:45:00;;;;;;;15.93;9.90;;;4.10;99.50;;;;;;5012589;28;20037;-67
2022/03/11 04:47:26;;;;;;;16.00;10.53;;;;;;;;;;5011959;28;20136;-67
2022/03/11 04:49:52;;;;;;;13.47;8.60;;;4.40;99.60;;;;;;5012503;28;20128;-67
2022/03/11 04:52:17;;;;;;;14.07;9.27;;;4.50;95.40;;;;;;5013258;28;20117;-67
2022/03/11 04:54:43;;;;;;;16.90;10.07;;;4.00;99.70;;;;;;5012951;28;20080;-67
2022/03/11 04:57:09;;;;;;;13.40;9.30;;;;;;;;;;5011210;28;20038;-67
2022/03/11 04:59:35;;;;;;;16.37;9.50;;;3.90;99.80;;;;;;5011611;28;20018;-67
2022/03/11 05:02:00;;;;;;;13.33;8.80;;;;;;;;;;5012719;28;20505;-67
2022/03/11 05:04:26;;;;;;;14.33;8.60;;;3.90;97.10;;;;;;5012912;28;20225;-68
2022/03/11 05:06:52;;;;;;;14.07;9.53;;;3.80;99.90;;;;;;5012643;28;20072;-67
2022/03/11 05:09:18;;;;;;;15.17;9.03;;;;;;;;;;5013071;28;20026;-67
2022/03/11 05:11:44;;;;;;;15.17;8.10;;;;;;;;;;5012262;28;20026;-68
2022/03/11 05:14:09;;;;;;;13.70;8.83;;;3.90;99.90;;;;;;5012470;28;20426;-67
2022/03/11 05:16:35;;;;;;;13.40;9.80;;;;;;;;;;5012674;28;20037;-67
2022/03/11 05:19:00;;;;;;;16.27;9.43;;;3.90;99.90;;;;;;5012513;28;20026;-67
2022/03/11 05:21:26;;;;;;;14.57;9.13;;;3.80;99.90;;;;;;5012145;28;20030;-67
2022/03/11 05:23:52;;;;;;;15.13;9.90;;;;;;;;;;5012272;28;20030;-67
2022/03/11 05:26:28;;;;;;;14.73;8.93;;;4.00;99.90;;;;;;5012122;28;20045;-67
2022/03/11 05:28:58;;;;;;;22.83;10.73;;;3.80;99.90;;;;;;5012136;28;20072;-67
2022/03/11 05:31:28;;;;;;;18.47;10.40;;;3.60;99.90;;;;;;5012498;28;20033;-67
2022/03/11 05:33:54;;;;;;;13.53;8.37;;;;;;;;;;5009383;28;20482;-68
2022/03/11 05:36:21;;;;;;;16.80;10.17;;;3.80;99.90;;;;;;5012469;28;20061;-67
2022/03/11 05:38:46;;;;;;;17.53;11.23;;;3.90;99.90;;;;;;5012083;28;20562;-69
2022/03/11 05:41:12;;;;;;;16.23;10.80;;;;;;;;;;5011520;28;20065;-67
2022/03/11 05:43:38;;;;;;;13.17;9.20;;;;;;;;;;5012277;28;20022;-67
2022/03/11 05:46:04;;;;;;;15.37;9.53;;;3.70;99.90;;;;;;5011451;28;20418;-67
2022/03/11 05:48:30;;;;;;;14.73;10.33;;;3.80;99.90;;;;;;5012140;28;20044;-67
2022/03/11 05:50:56;;;;;;;15.87;9.97;;;;;;;;;;5011721;28;20052;-68
2022/03/11 05:53:21;;;;;;;16.27;9.80;;;3.90;99.90;;;;;;5012684;28;20040;-67
2022/03/11 05:55:47;;;;;;;14.23;9.77;;;3.70;99.90;;;;;;5011294;28;20057;-68
2022/03/11 05:58:12;;;;;;;16.60;11.00;;;;;;;;;;5011806;28;20034;-67
2022/03/11 06:00:38;;;;;;;18.57;10.97;;;3.70;96.30;;;;;;5011666;28;20030;-67
2022/03/11 06:03:04;;;;;;;16.67;10.10;;;3.60;99.90;;;;;;5011623;28;20137;-67
2022/03/11 06:05:29;;;;;;;17.73;11.73;;;3.60;99.90;;;;;;5011413;28;20029;-67
2022/03/11 06:07:55;;;;;;;17.00;10.27;;;3.80;99.90;;;;;;5011549;28;20109;-67
2022/03/11 06:10:21;;;;;;;14.70;9.20;;;;;;;;;;5009756;28;20026;-67
2022/03/11 06:12:46;;;;;;;16.70;8.63;;;3.60;99.90;;;;;;5011598;28;20064;-67
2022/03/11 06:15:12;;;;;;;13.97;9.33;;;2.30;93.70;;;;;;5011373;28;20026;-67
2022/03/11 06:17:38;;;;;;;14.73;9.87;;;3.60;99.90;;;;;;5011288;28;20036;-67
2022/03/11 06:20:05;;;;;;;15.23;10.40;;;3.70;94.20;;;;;;5011131;28;20029;-67
2022/03/11 06:22:31;;;;;;;20.43;9.50;;;;;;;;;;5011543;28;20057;-67
2022/03/11 06:24:59;;;;;;;17.07;9.67;;;3.60;99.90;;;;;;5010408;28;20607;-67
2022/03/11 06:27:25;;;;;;;18.97;9.03;;;;;;;;;;5011489;28;20107;-71
2022/03/11 06:29:51;;;;;;;17.30;10.23;;;;;;;;;;5011230;28;20030;-71
2022/03/11 06:32:17;;;;;;;15.70;9.70;;;3.70;99.90;;;;;;5010437;28;20105;-71
2022/03/11 06:34:42;;;;;;;18.47;10.67;;;3.70;98.00;;;;;;5011283;28;20450;-71
2022/03/11 06:37:08;;;;;;;16.77;9.47;;;3.90;99.90;;;;;;5011125;28;20648;-72
2022/03/11 06:39:33;;;;;;;14.53;10.13;;;3.80;99.90;;;;;;5010831;28;20032;-72
2022/03/11 06:41:59;;;;;;;16.97;10.83;;;3.80;99.90;;;;;;5009390;28;20025;-72
2022/03/11 06:44:25;;;;;;;17.53;10.60;;;;;;;;;;5009694;28;20033;-71
2022/03/11 06:46:51;;;;;;;12.67;8.87;;;;;;;;;;5010140;28;20038;-71
2022/03/11 06:49:16;;;;;;;12.87;9.83;;;4.20;99.90;;;;;;5010514;28;20034;-71
2022/03/11 06:51:42;;;;;;;16.60;9.47;;;;;;;;;;5007103;28;20026;-71
2022/03/11 06:54:08;;;;;;;17.63;10.03;;;4.20;99.90;;;;;;5001247;28;20160;-71
2022/03/11 06:56:35;;;;;;;15.50;10.33;;;4.20;94.20;;;;;;5001397;28;20026;-71
2022/03/11 06:59:07;;;;;;;18.80;10.27;;;4.30;99.90;;;;;;5010648;28;20053;-71
2022/03/11 07:01:32;;;;;;;15.43;9.50;;;4.30;99.90;;;;;;5010648;28;20030;-71
2022/03/11 07:03:58;;;;;;;17.83;11.07;;;4.30;99.90;;;;;;5010301;28;20097;-71
2022/03/11 07:06:23;;;;;;;16.23;10.37;;;4.40;99.90;;;;;;5009296;28;20045;-71
2022/03/11 07:08:50;;;;;;;19.03;11.13;;;;;;;;;;5009735;28;20025;-71
2022/03/11 07:11:16;;;;;;;19.20;10.73;;;4.80;99.90;;;;;;5011032;28;20046;-71
2022/03/11 07:13:44;;;;;;;16.30;10.20;;;;;;;;;;5010508;28;20443;-72
2022/03/11 07:16:10;;;;;;;17.73;9.43;;;;;;;;;;5008992;28;20022;-70
2022/03/11 07:18:36;;;;;;;14.80;10.23;;;5.00;99.90;;;;;;5009733;28;20108;-70
2022/03/11 07:21:02;;;;;;;16.20;10.10;;;;;;;;;;5010297;28;20530;-70
2022/03/11 07:23:29;;;;;;;13.67;9.97;;;5.10;92.90;;;;;;5009828;28;20030;-71
2022/03/11 07:25:57;;;;;;;14.93;9.90;;;5.10;99.60;;;;;;5010272;28;20112;-70
2022/03/11 07:28:23;;;;;;;13.83;10.50;;;5.60;99.70;;;;;;5010535;28;20081;-70
2022/03/11 07:30:49;;;;;;;14.00;9.50;;;;;;;;;;5009627;28;20041;-70
2022/03/11 07:33:15;;;;;;;18.90;10.20;;;5.20;99.10;;;;;;5010252;28;20519;-70
2022/03/11 07:35:41;;;;;;;13.63;10.33;;;;;;;;;;5008938;28;20125;-70
2022/03/11 07:38:07;;;;;;;14.03;9.77;;;;;;;;;;5009317;28;20029;-69
2022/03/11 07:40:32;;;;;;;16.17;10.53;;;;;;;;;;5009781;28;20028;-70
2022/03/11 07:42:58;;;;;;;17.40;10.97;;;5.90;98.50;;;;;;5009742;28;20465;-70
2022/03/11 07:45:24;;;;;;;15.97;9.20;;;5.90;98.40;;;;;;5010457;28;20022;-70
2022/03/11 07:47:50;;;;;;;15.20;9.73;;;6.00;98.30;;;;;;5009716;28;20717;-71
2022/03/11 07:50:16;;;;;;;20.67;10.60;;;6.00;93.90;;;;;;5010044;28;20052;-70
2022/03/11 07:52:42;;;;;;;12.00;8.80;;;6.30;98.10;;;;;;5009690;28;20105;-70
2022/03/11 07:55:09;;;;;;;14.93;9.23;;;6.10;96.70;;;;;;5010137;28;20454;-69
2022/03/11 07:57:39;;;;;;;14.73;10.30;;;;;;;;;;5009539;28;20034;-70
2022/03/11 08:00:10;;;;;;;16.60;10.13;;;6.40;90.80;;;;;;5009485;28;20533;-70
2022/03/11 08:02:36;;;;;;;16.03;10.27;;;6.40;97.60;;;;;;5010220;28;20022;-70
2022/03/11 08:05:03;;;;;;;16.50;11.10;;;6.70;97.60;;;;;;5009451;28;20076;-70
2022/03/11 08:07:29;;;;;;;15.07;10.10;;;6.80;97.50;;;;;;5010172;28;20037;-70
2022/03/11 08:09:55;;;;;;;14.43;10.97;;;;;;;;;;5008474;28;20029;-70
2022/03/11 08:12:20;;;;;;;18.27;11.60;;;6.70;97.00;;;;;;5009926;28;20045;-70
2022/03/11 08:14:47;;;;;;;17.53;10.80;;;;;;;;;;5009632;28;20407;-70
2022/03/11 08:17:13;;;;;;;21.30;12.60;;;;;;;;;;5009936;28;20037;-70
2022/03/11 08:19:39;;;;;;;20.03;11.50;;;;;;;;;;5008022;28;20022;-70
2022/03/11 08:22:05;;;;;;;19.83;11.03;;;7.10;95.90;;;;;;5009671;28;20109;-70
2022/03/11 08:24:31;;;;;;;15.67;10.50;;;;;;;;;;5008587;28;20084;-70
2022/03/11 08:26:56;;;;;;;19.13;12.10;;;7.10;96.20;;;;;;5009618;28;20517;-69
2022/03/11 08:29:23;;;;;;;20.93;12.63;;;7.50;92.00;;;;;;5009187;28;20030;-70
2022/03/11 08:31:49;;;;;;;16.30;12.03;;;;;;;;;;5008334;28;20128;-71
2022/03/11 08:34:15;;;;;;;19.40;12.00;;;7.50;90.90;;;;;;5008833;28;20532;-71
2022/03/11 08:36:41;;;;;;;19.73;12.20;;;;;;;;;;5008264;28;20033;-70
2022/03/11 08:39:07;;;;;;;17.93;11.87;;;7.70;95.70;;;;;;5007912;28;20128;-71
2022/03/11 08:41:32;;;;;;;17.40;12.67;;;;;;;;;;5009661;28;20394;-71
2022/03/11 08:44:00;;;;;;;14.17;11.00;;;7.60;95.70;;;;;;5009978;28;20080;-71
2022/03/11 08:46:29;;;;;;;12.60;9.23;;;8.00;95.70;;;;;;5009563;28;20069;-70
2022/03/11 08:48:55;;;;;;;19.37;11.73;;;;;;;;;;5008291;28;20042;-71
2022/03/11 08:51:21;;;;;;;22.53;12.53;;;;;;;;;;5009566;28;20056;-71
2022/03/11 08:53:48;;;;;;;18.07;12.73;;;;;;;;;;5008277;28;20113;-71
2022/03/11 08:56:15;;;;;;;21.33;13.03;;;;;;;;;;5011524;28;20053;-71
2022/03/11 08:58:41;;;;;;;17.30;12.90;;;;;;;;;;5012985;28;20092;-71
2022/03/11 09:01:06;;;;;;;18.00;13.17;;;8.20;94.40;;;;;;5012881;28;20030;-70
2022/03/11 09:03:32;;;;;;;20.63;14.63;;;8.20;94.80;;;;;;5012435;28;20041;-70
2022/03/11 09:05:58;;;;;;;21.30;12.77;;;8.30;94.60;;;;;;5012270;28;20168;-70
2022/03/11 09:08:23;;;;;;;20.73;12.93;;;8.30;94.60;;;;;;5013176;28;20117;-71
2022/03/11 09:10:49;;;;;;;20.80;13.17;;;;;;;;;;5012043;28;20041;-70
2022/03/11 09:13:15;;;;;;;18.07;11.53;;;8.40;94.60;;;;;;5012616;28;20022;-71
2022/03/11 09:15:41;;;;;;;22.13;14.50;;;;;;;;;;5012667;28;20065;-71
2022/03/11 09:18:06;;;;;;;18.87;13.23;;;8.60;94.40;;;;;;5010422;28;20030;-71
2022/03/11 09:20:32;;;;;;;23.13;13.57;;;8.60;94.20;;;;;;5012192;28;20109;-71
2022/03/11 09:22:57;;;;;;;18.20;12.57;;;8.80;94.30;;;;;;5012329;28;20476;-71
2022/03/11 09:25:23;;;;;;;20.33;13.07;;;8.50;94.20;;;;;;5012994;28;20043;-71
2022/03/11 09:27:49;;;;;;;17.80;12.97;;;;;;;;;;5012217;28;20332;-71
2022/03/11 09:30:15;;;;;;;17.00;12.10;;;8.70;93.90;;;;;;5012588;28;20029;-71
2022/03/11 09:32:41;;;;;;;20.20;13.17;;;;;;;;;;5011356;28;20121;-70
2022/03/11 09:35:07;;;;;;;20.10;14.07;;;8.90;92.00;;;;;;5011211;28;20652;-71
2022/03/11 09:37:34;;;;;;;18.90;15.20;;;;;;;;;;5012372;28;20029;-71
2022/03/11 09:40:01;;;;;;;19.27;13.27;;;;;;;;;;5012144;28;20502;-71
2022/03/11 09:42:28;;;;;;;17.97;12.53;;;8.90;93.60;;;;;;5012555;28;20095;-71
2022/03/11 09:44:55;;;;;;;22.47;13.60;;;9.10;82.80;;;;;;5011669;28;20033;-71
2022/03/11 09:47:21;;;;;;;18.50;14.37;;;9.10;93.60;;;;;;5012002;28;20505;-71
2022/03/11 09:49:48;;;;;;;20.33;13.77;;;9.20;82.40;;;;;;5011483;28;20053;-70
2022/03/11 09:52:16;;;;;;;18.90;13.63;;;9.10;92.70;;;;;;5012150;28;20036;-71
2022/03/11 09:54:42;;;;;;;23.73;15.20;;;9.20;93.30;;;;;;5011877;28;20026;-71
2022/03/11 09:57:08;;;;;;;19.07;12.60;;;9.40;93.30;;;;;;5012034;28;20034;-70
2022/03/11 09:59:33;;;;;;;20.23;14.10;;;9.30;93.20;;;;;;5012036;28;20030;-70
2022/03/11 10:01:59;;;;;;;22.83;14.67;;;9.40;93.20;;;;;;5011055;28;20076;-70
2022/03/11 10:04:25;;;;;;;19.90;13.17;;;;;;;;;;5011092;28;20026;-70
2022/03/11 10:06:52;;;;;;;21.87;14.23;;;9.80;93.20;;;;;;5010551;28;20112;-71
2022/03/11 10:09:17;;;;;;;19.53;14.10;;;9.90;93.20;;;;;;5010428;28;20036;-71
2022/03/11 10:11:46;;;;;;;21.67;13.83;;;9.80;83.90;;;;;;5010956;28;20030;-70
2022/03/11 10:14:12;;;;;;;19.23;13.33;;;;;;;;;;5011402;28;20018;-70
2022/03/11 10:16:37;;;;;;;23.00;14.83;;;9.90;93.00;;;;;;5010096;28;20049;-71
2022/03/11 10:19:03;;;;;;;19.03;13.53;;;;;;;;;;5011277;28;20089;-70
2022/03/11 10:21:40;;;;;;;19.33;13.93;;;9.90;92.80;;;;;;5011306;28;20434;-71
2022/03/11 10:24:08;;;;;;;18.57;12.60;;;10.00;92.80;;;;;;5011246;28;20049;-71
2022/03/11 10:26:36;;;;;;;18.13;12.00;;;10.20;82.20;;;;;;5009400;28;20033;-71
2022/03/11 10:29:04;;;;;;;20.83;14.30;;;10.20;92.50;;;;;;4994361;28;20038;-71
2022/03/11 10:31:32;;;;;;;26.27;14.70;;;10.10;80.50;;;;;;4991609;28;20038;-71
2022/03/11 10:34:16;;;;;;;19.63;13.37;;;10.30;92.50;;;;;;5008385;28;20030;-70
2022/03/11 10:36:56;;;;;;;18.27;12.93;;;10.10;92.60;;;;;;5009689;28;20083;-70
2022/03/11 10:39:23;;;;;;;19.90;14.13;;;10.10;92.60;;;;;;5011177;28;20080;-70
2022/03/11 10:41:50;;;;;;;19.60;11.80;;;10.00;88.30;;;;;;5010636;28;20053;-71
2022/03/11 10:44:22;;;;;;;21.93;13.73;;;10.50;92.30;;;;;;5010585;28;20479;-71
2022/03/11 10:46:48;;;;;;;24.43;15.33;;;10.50;92.30;;;;;;5010673;28;20061;-70
2022/03/11 10:49:24;;;;;;;24.17;16.33;;;10.40;80.00;;;;;;5010823;28;20018;-70
2022/03/11 10:51:52;;;;;;;17.13;12.97;;;10.40;92.30;;;;;;5010518;28;20030;-70
2022/03/11 10:54:18;;;;;;;21.10;14.37;;;10.50;92.30;;;;;;5011338;28;20025;-70
2022/03/11 10:56:44;;;;;;;26.93;15.97;;;10.60;92.10;;;;;;5011213;28;20486;-70
2022/03/11 10:59:30;;;;;;;19.73;14.63;;;10.60;92.00;;;;;;5010134;28;20475;-70
2022/03/11 11:01:57;;;;;;;25.63;16.40;;;10.50;92.00;;;;;;5010760;28;20028;-70
2022/03/11 11:04:24;;;;;;;18.80;13.63;;;10.50;79.20;;;;;;5011532;28;20578;-70
2022/03/11 11:06:50;;;;;;;25.97;14.60;;;10.40;87.00;;;;;;5009794;28;20475;-70
2022/03/11 11:09:17;;;;;;;23.33;13.43;;;10.50;91.90;;;;;;5010444;28;20029;-68
2022/03/11 11:11:43;;;;;;;22.07;14.37;;;10.40;92.00;;;;;;5011013;28;20463;-70
2022/03/11 11:14:10;;;;;;;19.70;14.00;;;11.00;88.40;;;;;;5009788;28;20045;-70
2022/03/11 11:16:40;;;;;;;22.07;15.57;;;10.70;91.80;;;;;;5010500;28;20038;-69
2022/03/11 11:19:08;;;;;;;21.43;14.57;;;10.80;91.90;;;;;;5010219;28;20041;-71
2022/03/11 11:21:46;;;;;;;17.77;13.40;;;11.30;80.00;;;;;;5008565;28;20076;-70
2022/03/11 11:24:18;;;;;;;25.93;14.20;;;10.70;91.90;;;;;;5010362;28;20025;-71
2022/03/11 11:26:48;;;;;;;20.43;13.40;;;10.90;79.00;;;;;;5010616;28;20037;-78
2022/03/11 11:29:21;;;;;;;26.87;17.30;;;11.30;91.80;;;;;;5010180;28;20120;-71
2022/03/11 11:31:47;;;;;;;20.73;14.77;;;11.10;91.70;;;;;;5010706;28;20088;-71
2022/03/11 11:34:30;;;;;;;20.27;14.00;;;11.00;91.70;;;;;;5009145;28;20018;-71
2022/03/11 11:36:57;;;;;;;21.57;14.63;;;11.40;91.60;;;;;;5009823;28;20437;-71
2022/03/11 11:39:34;;;;;;;21.23;13.57;;;10.90;81.40;;;;;;5009667;28;20018;-71
2022/03/11 11:42:05;;;;;;;21.33;14.60;;;11.00;91.30;;;;;;5009651;28;20018;-71
2022/03/11 11:44:34;;;;;;;20.57;14.53;;;11.30;81.20;;;;;;5009663;28;20450;-71
2022/03/11 11:47:22;;;;;;;17.33;12.00;;;11.20;91.20;;;;;;5010106;28;20096;-71
2022/03/11 11:49:54;;;;;;;24.50;15.70;;;11.20;84.80;;;;;;5009217;28;20046;-71
2022/03/11 11:52:35;;;;;;;17.50;13.00;;;11.20;91.20;;;;;;5010212;28;20018;-73
2022/03/11 11:55:19;;;;;;;17.67;13.50;;;11.30;91.00;;;;;;5010333;28;20116;-72
2022/03/11 11:57:46;;;;;;;21.48;14.60;;;11.40;91.20;;;;;;5009896;28;20064;-72
2022/03/11 12:00:40;;;;;;;19.33;13.50;;;11.40;91.10;;;;;;5010238;28;20022;-71
2022/03/11 12:03:10;;;;;;;20.85;14.18;;;11.50;91.10;;;;;;5005005;28;20036;-71
2022/03/11 12:05:41;;;;;;;18.97;13.97;;;11.40;91.00;;;;;;5010003;28;20033;-70
2022/03/11 12:08:07;;;;;;;21.43;13.67;;;11.10;90.80;;;;;;5009993;28;20045;-71
2022/03/11 12:10:33;;;;;;;23.13;14.27;;;;;;;;;;5010120;28;20030;-71
2022/03/11 12:13:02;;;;;;;19.77;15.17;;;11.40;76.30;;;;;;5008810;28;20040;-71
2022/03/11 12:15:31;;;;;;;19.43;14.03;;;11.50;76.10;;;;;;5009986;28;20497;-71
2022/03/11 12:18:06;;;;;;;21.63;15.43;;;11.70;90.70;;;;;;5009581;28;20251;-71
2022/03/11 12:20:49;;;;;;;23.03;14.03;;;11.50;83.30;;;;;;5009968;28;20026;-71
2022/03/11 12:23:14;;;;;;;19.87;14.17;;;11.80;90.70;;;;;;5010081;28;20121;-71
2022/03/11 12:25:45;;;;;;;21.40;15.13;;;11.70;90.60;;;;;;5010045;28;20148;-71
2022/03/11 12:28:17;;;;;;;19.13;14.47;;;11.70;90.40;;;;;;5008822;28;20033;-71
2022/03/11 12:30:49;;;;;;;18.87;14.37;;;12.00;90.40;;;;;;5010835;28;20021;-70
2022/03/11 12:33:17;;;;;;;21.33;14.20;;;12.00;90.50;;;;;;5013989;28;20053;-68
2022/03/11 12:35:44;;;;;;;17.53;13.60;;;11.80;90.40;;;;;;5013354;28;21229;-70
2022/03/11 12:38:12;;;;;;;20.70;14.37;;;11.80;90.20;;;;;;5013420;28;20045;-69
2022/03/11 12:40:38;;;;;;;19.37;14.57;;;11.90;90.20;;;;;;5013280;28;20026;-69
2022/03/11 12:43:05;;;;;;;19.37;14.47;;;12.20;90.00;;;;;;5013421;28;20033;-70
2022/03/11 12:45:33;;;;;;;21.13;15.25;;;12.30;90.30;;;;;;5013537;28;20093;-72
2022/03/11 12:47:59;;;;;;;24.50;14.30;;;12.50;90.40;;;;;;5013191;28;20034;-69
2022/03/11 12:50:26;;;;;;;19.40;14.50;;;12.40;90.00;;;;;;5012172;28;20522;-69
2022/03/11 12:52:56;;;;;;;19.48;15.10;;;12.40;90.00;;;;;;5012852;28;20427;-70
2022/03/11 12:55:25;;;;;;;23.40;14.85;;;12.20;89.90;;;;;;5012237;28;20025;-71
2022/03/11 12:57:52;;;;;;;17.00;13.20;;;12.20;89.90;;;;;;5012874;28;20034;-71
2022/03/11 13:00:19;;;;;;;26.00;14.52;;;12.50;89.90;;;;;;5013558;28;20045;-70
2022/03/11 13:02:47;;;;;;;25.52;16.90;;;12.20;90.00;;;;;;5013527;28;20034;-72